createdAt,value
2022-10-30T00:01:23.263Z,16.60
2022-10-30T00:03:51.311Z,16.60
2022-10-30T00:06:20.455Z,16.60
2022-10-30T00:08:48.586Z,16.60
2022-10-30T00:11:16.619Z,16.60
2022-10-30T00:13:45.098Z,16.60
2022-10-30T00:16:13.264Z,16.60
2022-10-30T00:18:43.340Z,16.70
2022-10-30T00:21:15.556Z,16.70
2022-10-30T00:23:52.031Z,16.80
2022-10-30T00:26:22.999Z,16.80
2022-10-30T00:28:52.909Z,16.70
2022-10-30T00:31:21.077Z,16.70
2022-10-30T00:33:54.682Z,16.70
2022-10-30T00:36:23.486Z,16.70
2022-10-30T00:38:51.685Z,16.60
2022-10-30T00:41:24.567Z,16.60
2022-10-30T00:43:53.060Z,16.60
2022-10-30T00:46:41.134Z,16.60
2022-10-30T00:49:20.016Z,16.60
2022-10-30T00:51:54.965Z,16.60
2022-10-30T00:54:23.860Z,16.60
2022-10-30T00:56:53.770Z,16.60
2022-10-30T00:59:30.847Z,16.50
2022-10-30T01:02:01.433Z,16.50
2022-10-30T01:04:33.111Z,16.40
2022-10-30T01:07:11.033Z,16.40
2022-10-30T01:09:40.818Z,16.40
2022-10-30T01:12:09.497Z,16.40
2022-10-30T01:14:48.360Z,16.30
2022-10-30T01:17:20.546Z,16.30
2022-10-30T01:19:57.550Z,16.30
2022-10-30T01:23:15.871Z,16.30
2022-10-30T01:26:39.854Z,16.40
2022-10-30T01:29:33.532Z,16.30
2022-10-30T01:32:27.995Z,16.20
2022-10-30T01:35:08.447Z,16.20
2022-10-30T01:37:58.300Z,16.30
2022-10-30T01:40:27.054Z,16.40
2022-10-30T01:42:58.591Z,16.50
2022-10-30T01:45:48.045Z,16.60
2022-10-30T01:48:53.105Z,16.70
2022-10-30T01:52:03.521Z,16.70
2022-10-30T01:54:56.098Z,16.90
2022-10-30T01:57:50.346Z,16.90
2022-10-30T02:00:20.581Z,17.00
2022-10-30T02:02:51.649Z,17.00
2022-10-30T02:05:44.209Z,17.10
2022-10-30T02:08:12.532Z,17.10
2022-10-30T02:10:44.714Z,17.20
2022-10-30T02:13:13.138Z,17.20
2022-10-30T02:15:44.006Z,17.30
2022-10-30T02:18:12.205Z,17.30
2022-10-30T02:20:41.360Z,17.30
2022-10-30T02:23:13.629Z,17.30
2022-10-30T02:25:41.833Z,17.40
2022-10-30T02:28:11.235Z,17.40
2022-10-30T02:30:44.229Z,17.40
2022-10-30T02:33:12.585Z,17.40
2022-10-30T02:35:40.660Z,17.40
2022-10-30T02:38:09.228Z,17.40
2022-10-30T02:40:37.313Z,17.40
2022-10-30T02:43:05.368Z,17.30
2022-10-30T02:45:33.600Z,17.30
2022-10-30T02:48:02.285Z,17.30
2022-10-30T02:50:31.684Z,17.10
2022-10-30T02:53:00.380Z,17.10
2022-10-30T02:55:29.258Z,16.90
2022-10-30T02:57:57.485Z,16.80
2022-10-30T03:00:26.024Z,16.80
2022-10-30T03:02:57.737Z,16.70
2022-10-30T03:05:25.925Z,16.60
2022-10-30T03:07:55.504Z,16.50
2022-10-30T03:10:24.115Z,16.40
2022-10-30T03:12:53.547Z,16.30
2022-10-30T03:15:22.478Z,16.20
2022-10-30T03:17:52.973Z,16.20
2022-10-30T03:20:21.517Z,16.00
2022-10-30T03:22:49.716Z,15.90
2022-10-30T03:25:23.885Z,15.80
2022-10-30T03:27:56.128Z,15.80
2022-10-30T03:30:24.493Z,15.80
2022-10-30T03:32:52.592Z,15.70
2022-10-30T03:35:21.739Z,15.60
2022-10-30T03:37:49.940Z,15.60
2022-10-30T03:40:19.609Z,15.60
2022-10-30T03:42:47.787Z,15.60
2022-10-30T03:45:16.248Z,15.50
2022-10-30T03:47:44.310Z,15.50
2022-10-30T03:50:12.423Z,15.50
2022-10-30T03:52:40.476Z,15.50
2022-10-30T03:55:09.281Z,15.40
2022-10-30T03:57:40.961Z,15.40
2022-10-30T04:00:18.642Z,15.40
2022-10-30T04:03:01.142Z,15.30
2022-10-30T04:05:31.875Z,15.40
2022-10-30T04:08:07.731Z,15.30
2022-10-30T04:10:38.158Z,15.30
2022-10-30T04:13:12.926Z,15.30
2022-10-30T04:15:56.344Z,15.20
2022-10-30T04:18:27.083Z,15.20
2022-10-30T04:20:56.225Z,15.10
2022-10-30T04:23:24.326Z,15.00
2022-10-30T04:25:52.526Z,15.00
2022-10-30T04:28:21.699Z,15.10
2022-10-30T04:30:49.873Z,15.10
2022-10-30T04:33:19.036Z,15.20
2022-10-30T04:35:47.237Z,15.30
2022-10-30T04:38:21.458Z,15.30
2022-10-30T04:40:50.002Z,15.20
2022-10-30T04:43:19.188Z,15.20
2022-10-30T04:45:50.968Z,15.20
2022-10-30T04:48:19.770Z,15.30
2022-10-30T04:50:49.059Z,15.30
2022-10-30T04:53:26.020Z,15.30
2022-10-30T04:56:01.058Z,15.20
2022-10-30T04:58:29.742Z,15.20
2022-10-30T05:01:09.378Z,15.10
2022-10-30T05:03:38.656Z,15.10
2022-10-30T05:06:30.470Z,15.10
2022-10-30T05:08:59.296Z,15.20
2022-10-30T05:11:39.472Z,15.10
2022-10-30T05:14:09.403Z,15.20
2022-10-30T05:16:38.898Z,15.20
2022-10-30T05:19:07.588Z,15.30
2022-10-30T05:21:36.483Z,15.30
2022-10-30T05:24:05.911Z,15.30
2022-10-30T05:26:41.920Z,15.30
2022-10-30T05:29:10.117Z,15.30
2022-10-30T05:31:40.574Z,15.30
2022-10-30T05:34:17.796Z,15.30
2022-10-30T05:36:48.642Z,15.30
2022-10-30T05:39:17.447Z,15.30
2022-10-30T05:41:49.102Z,15.30
2022-10-30T05:44:29.209Z,15.30
2022-10-30T05:47:03.150Z,15.30
2022-10-30T05:49:34.500Z,15.20
2022-10-30T05:52:05.556Z,15.10
2022-10-30T05:54:34.116Z,15.10
2022-10-30T05:57:08.918Z,15.00
2022-10-30T05:59:40.030Z,15.00
2022-10-30T06:02:09.032Z,15.00
2022-10-30T06:04:37.844Z,15.00
2022-10-30T06:07:11.455Z,15.00
2022-10-30T06:09:39.670Z,15.00
2022-10-30T06:12:27.894Z,15.10
2022-10-30T06:15:06.435Z,15.20
2022-10-30T06:17:34.498Z,15.20
2022-10-30T06:20:17.014Z,15.20
2022-10-30T06:22:57.783Z,15.20
2022-10-30T06:25:37.741Z,15.20
2022-10-30T06:28:31.535Z,15.10
2022-10-30T06:30:59.859Z,15.00
2022-10-30T06:33:28.304Z,15.00
2022-10-30T06:35:56.744Z,15.00
2022-10-30T06:38:24.942Z,15.00
2022-10-30T06:40:54.801Z,15.00
2022-10-30T06:43:41.635Z,15.00
2022-10-30T06:46:32.431Z,15.00
2022-10-30T06:49:02.128Z,15.00
2022-10-30T06:51:32.159Z,15.00
2022-10-30T06:54:01.430Z,15.00
2022-10-30T06:56:51.953Z,15.00
2022-10-30T06:59:50.265Z,14.90
2022-10-30T07:02:38.503Z,15.00
2022-10-30T07:05:10.677Z,15.00
2022-10-30T07:07:40.547Z,15.00
2022-10-30T07:10:10.189Z,15.10
2022-10-30T07:13:04.312Z,15.10
2022-10-30T07:15:45.266Z,15.20
2022-10-30T07:18:22.920Z,15.20
2022-10-30T07:20:57.027Z,15.20
2022-10-30T07:23:25.802Z,15.30
2022-10-30T07:26:03.732Z,15.20
2022-10-30T07:28:43.954Z,15.30
2022-10-30T07:31:34.818Z,15.30
2022-10-30T07:34:32.293Z,15.30
2022-10-30T07:37:18.977Z,15.40
2022-10-30T07:39:59.079Z,15.40
2022-10-30T07:42:46.226Z,15.40
2022-10-30T07:45:34.365Z,15.50
2022-10-30T07:48:40.960Z,15.60
2022-10-30T07:51:20.214Z,15.70
2022-10-30T07:53:48.395Z,15.80
2022-10-30T07:56:16.954Z,15.90
2022-10-30T07:58:54.162Z,16.00
2022-10-30T08:01:38.596Z,16.10
2022-10-30T08:04:28.008Z,16.30
2022-10-30T08:07:01.244Z,16.30
2022-10-30T08:09:30.786Z,16.40
2022-10-30T08:11:58.852Z,16.40
2022-10-30T08:14:27.200Z,16.50
2022-10-30T08:16:57.295Z,16.50
2022-10-30T08:19:25.524Z,16.60
2022-10-30T08:21:59.190Z,16.60
2022-10-30T08:24:28.525Z,16.70
2022-10-30T08:26:59.945Z,16.70
2022-10-30T08:29:28.886Z,16.70
2022-10-30T08:31:57.910Z,16.80
2022-10-30T08:34:27.678Z,16.80
2022-10-30T08:36:57.694Z,16.80
2022-10-30T08:39:26.020Z,16.90
2022-10-30T08:42:17.479Z,16.90
2022-10-30T08:44:46.282Z,17.00
2022-10-30T08:47:26.124Z,17.00
2022-10-30T08:49:54.348Z,17.10
2022-10-30T08:52:26.250Z,17.20
2022-10-30T08:54:57.954Z,17.20
2022-10-30T08:57:28.416Z,17.30
2022-10-30T08:59:58.445Z,17.40
2022-10-30T09:02:55.855Z,17.40
2022-10-30T09:05:53.672Z,17.40
2022-10-30T09:08:22.065Z,17.50
2022-10-30T09:11:04.201Z,17.50
2022-10-30T09:13:33.501Z,17.60
2022-10-30T09:16:04.076Z,17.60
2022-10-30T09:18:35.034Z,17.60
2022-10-30T09:21:05.066Z,17.70
2022-10-30T09:23:39.140Z,17.70
2022-10-30T09:26:30.003Z,17.80
2022-10-30T09:29:18.387Z,17.80
2022-10-30T09:32:15.488Z,17.90
2022-10-30T09:34:53.543Z,17.90
2022-10-30T09:37:27.621Z,18.00
2022-10-30T09:40:00.618Z,18.00
2022-10-30T09:42:44.969Z,18.10
2022-10-30T09:45:42.640Z,18.10
2022-10-30T09:48:23.684Z,18.10
2022-10-30T09:55:41.798Z,18.20
2022-10-30T09:58:34.353Z,18.20
2022-10-30T10:01:29.474Z,18.30
2022-10-30T10:04:28.739Z,18.40
2022-10-30T10:07:30.523Z,18.50
2022-10-30T10:10:53.445Z,18.50
2022-10-30T10:13:38.591Z,18.60
2022-10-30T10:16:21.314Z,18.70
2022-10-30T10:19:07.974Z,18.80
2022-10-30T10:22:08.218Z,18.80
2022-10-30T10:24:44.585Z,18.80
2022-10-30T10:27:38.823Z,18.90
2022-10-30T10:30:20.492Z,19.00
2022-10-30T10:33:10.302Z,19.00
2022-10-30T10:36:22.031Z,19.10
2022-10-30T10:39:07.752Z,19.20
2022-10-30T10:42:03.198Z,19.20
2022-10-30T10:44:39.939Z,19.30
2022-10-30T10:47:44.843Z,19.30
2022-10-30T10:50:26.493Z,19.40
2022-10-30T10:53:09.824Z,19.50
2022-10-30T10:55:40.050Z,19.50
2022-10-30T10:58:23.390Z,19.60
2022-10-30T11:00:53.015Z,19.60
2022-10-30T11:03:35.160Z,19.70
2022-10-30T11:06:27.465Z,19.80
2022-10-30T11:09:14.045Z,19.80
2022-10-30T11:11:45.270Z,19.90
2022-10-30T11:14:31.548Z,20.00
2022-10-30T11:17:18.371Z,20.00
2022-10-30T11:19:51.813Z,20.00
2022-10-30T11:22:43.221Z,20.10
2022-10-30T11:25:26.918Z,20.10
2022-10-30T11:28:02.304Z,20.20
2022-10-30T11:30:30.843Z,20.30
2022-10-30T11:33:19.931Z,20.40
2022-10-30T11:35:48.035Z,20.40
2022-10-30T11:38:22.342Z,20.50
2022-10-30T11:40:52.973Z,20.50
2022-10-30T11:43:25.700Z,20.60
2022-10-30T11:45:54.625Z,20.60
2022-10-30T11:48:31.698Z,20.70
2022-10-30T11:51:02.365Z,20.80
2022-10-30T11:53:49.247Z,20.80
2022-10-30T11:56:21.897Z,20.90
2022-10-30T11:59:03.535Z,21.00
2022-10-30T12:01:36.328Z,21.00
2022-10-30T12:04:21.639Z,21.10
2022-10-30T12:07:26.440Z,21.10
2022-10-30T12:09:54.550Z,21.20
2022-10-30T12:12:29.564Z,21.20
2022-10-30T12:15:14.220Z,21.30
2022-10-30T12:18:02.219Z,21.30
2022-10-30T12:20:30.773Z,21.40
2022-10-30T12:22:59.201Z,21.40
2022-10-30T12:25:31.144Z,21.40
2022-10-30T12:28:18.187Z,21.50
2022-10-30T12:31:23.709Z,21.50
2022-10-30T12:34:18.435Z,21.50
2022-10-30T12:36:56.835Z,21.50
2022-10-30T12:39:38.351Z,21.50
2022-10-30T12:42:14.836Z,21.60
2022-10-30T12:44:53.146Z,21.60
2022-10-30T12:47:34.286Z,21.70
2022-10-30T12:50:16.036Z,21.70
2022-10-30T12:53:27.206Z,21.80
2022-10-30T12:56:26.128Z,21.90
2022-10-30T12:59:53.870Z,22.00
2022-10-30T13:02:40.445Z,22.10
2022-10-30T13:05:28.536Z,22.10
2022-10-30T13:08:51.019Z,22.20
2022-10-30T13:11:36.947Z,22.30
2022-10-30T13:14:16.464Z,22.40
2022-10-30T13:16:44.779Z,22.30
2022-10-30T13:19:14.071Z,22.30
2022-10-30T13:21:53.154Z,22.40
2022-10-30T13:24:31.700Z,22.40
2022-10-30T13:27:07.707Z,22.50
2022-10-30T13:29:54.739Z,22.50
2022-10-30T13:32:41.369Z,22.50
2022-10-30T13:35:26.286Z,22.60
2022-10-30T13:38:19.950Z,22.60
2022-10-30T13:41:00.752Z,22.60
2022-10-30T13:44:32.436Z,22.60
2022-10-30T13:47:59.868Z,22.70
2022-10-30T13:50:40.242Z,22.70
2022-10-30T13:53:19.708Z,22.70
2022-10-30T13:55:49.829Z,22.70
2022-10-30T13:58:29.219Z,22.70
2022-10-30T14:01:31.329Z,22.80
2022-10-30T14:04:19.619Z,22.80
2022-10-30T14:07:10.842Z,22.80
2022-10-30T14:10:13.799Z,22.80
2022-10-30T14:12:55.388Z,22.80
2022-10-30T14:15:42.548Z,22.80
2022-10-30T14:18:13.290Z,22.70
2022-10-30T14:20:55.852Z,22.70
2022-10-30T14:23:35.722Z,22.70
2022-10-30T14:26:04.137Z,22.60
2022-10-30T14:28:38.239Z,22.60
2022-10-30T14:31:18.661Z,22.60
2022-10-30T14:33:55.041Z,22.60
2022-10-30T14:36:33.676Z,22.60
2022-10-30T14:39:14.845Z,22.50
2022-10-30T14:42:07.054Z,22.50
2022-10-30T14:44:59.374Z,22.50
2022-10-30T14:47:27.330Z,22.40
2022-10-30T14:50:01.302Z,22.30
2022-10-30T14:52:43.163Z,22.30
2022-10-30T14:55:32.281Z,22.30
2022-10-30T14:58:03.338Z,22.20
2022-10-30T15:00:35.034Z,22.20
2022-10-30T15:03:36.597Z,22.10
2022-10-30T15:06:42.458Z,22.00
2022-10-30T15:09:29.159Z,22.00
2022-10-30T15:12:24.526Z,21.90
2022-10-30T15:15:03.123Z,21.90
2022-10-30T15:17:39.588Z,21.80
2022-10-30T15:20:18.375Z,21.80
2022-10-30T15:22:51.834Z,21.80
2022-10-30T15:25:23.314Z,21.70
2022-10-30T15:27:57.530Z,21.60
2022-10-30T15:30:27.625Z,21.60
2022-10-30T15:32:55.931Z,21.50
2022-10-30T15:35:30.033Z,21.40
2022-10-30T15:38:10.227Z,21.40
2022-10-30T15:40:39.035Z,21.30
2022-10-30T15:43:12.519Z,21.20
2022-10-30T15:45:47.440Z,21.10
2022-10-30T15:48:33.019Z,21.10
2022-10-30T15:51:06.267Z,20.90
2022-10-30T15:53:45.503Z,20.80
2022-10-30T15:57:21.507Z,20.80
2022-10-30T15:59:38.790Z,20.70
2022-10-30T16:02:22.959Z,20.60
2022-10-30T16:04:51.395Z,20.50
2022-10-30T16:07:24.637Z,20.40
2022-10-30T16:09:55.985Z,20.40
2022-10-30T16:12:32.747Z,20.30
2022-10-30T16:15:24.644Z,20.40
2022-10-30T16:18:27.795Z,20.40
2022-10-30T16:21:03.070Z,20.30
2022-10-30T16:23:37.278Z,20.20
2022-10-30T16:26:05.846Z,20.20
2022-10-30T16:28:36.079Z,20.30
2022-10-30T16:31:08.349Z,20.30
2022-10-30T16:33:37.532Z,20.30
2022-10-30T16:36:07.504Z,20.20
2022-10-30T16:38:37.768Z,20.10
2022-10-30T16:41:12.315Z,20.00
2022-10-30T16:44:04.777Z,19.90
2022-10-30T16:46:53.356Z,19.80
2022-10-30T16:49:30.464Z,19.60
2022-10-30T16:52:07.761Z,19.40
2022-10-30T16:54:42.106Z,19.40
2022-10-30T16:57:27.805Z,19.30
2022-10-30T16:59:57.832Z,19.20
2022-10-30T17:02:35.205Z,19.00
2022-10-30T17:05:35.255Z,19.00
2022-10-30T17:08:39.960Z,18.90
2022-10-30T17:11:18.850Z,18.90
2022-10-30T17:13:59.042Z,18.80
2022-10-30T17:16:31.666Z,18.70
2022-10-30T17:19:31.683Z,18.60
2022-10-30T17:22:04.431Z,18.50
2022-10-30T17:24:36.018Z,18.50
2022-10-30T17:27:29.300Z,18.40
2022-10-30T17:29:57.479Z,18.40
2022-10-30T17:32:29.283Z,18.30
2022-10-30T17:35:18.268Z,18.30
2022-10-30T17:37:46.688Z,18.30
2022-10-30T17:40:15.752Z,18.20
2022-10-30T17:42:43.955Z,18.20
2022-10-30T17:45:15.758Z,18.10
2022-10-30T17:47:43.844Z,18.00
2022-10-30T17:50:12.403Z,18.00
2022-10-30T17:52:40.460Z,17.90
2022-10-30T17:55:25.823Z,17.90
2022-10-30T17:57:53.907Z,17.90
2022-10-30T18:00:22.013Z,17.80
2022-10-30T18:02:50.191Z,17.70
2022-10-30T18:05:22.713Z,17.70
2022-10-30T18:10:23.819Z,17.70
2022-10-30T18:12:51.880Z,17.70
2022-10-30T18:15:46.366Z,17.80
2022-10-30T18:18:14.470Z,17.80
2022-10-30T18:20:42.676Z,17.80
2022-10-30T18:26:28.013Z,17.60
2022-10-30T18:28:56.115Z,17.60
2022-10-30T18:31:25.024Z,17.50
2022-10-30T18:33:53.341Z,17.50
2022-10-30T18:36:24.783Z,17.40
2022-10-30T18:38:54.690Z,17.40
2022-10-30T18:41:34.630Z,17.40
2022-10-30T18:44:03.554Z,17.40
2022-10-30T18:46:33.678Z,17.40
2022-10-30T18:49:01.913Z,17.40
2022-10-30T18:51:29.987Z,17.20
2022-10-30T18:53:58.401Z,17.20
2022-10-30T18:56:29.969Z,17.20
2022-10-30T18:59:02.294Z,17.10
2022-10-30T19:01:32.480Z,17.20
2022-10-30T19:04:02.454Z,17.10
2022-10-30T19:06:31.089Z,17.10
2022-10-30T19:08:59.258Z,17.00
2022-10-30T19:11:30.220Z,17.00
2022-10-30T19:14:00.247Z,17.00
2022-10-30T19:16:29.163Z,17.10
2022-10-30T19:18:57.478Z,17.10
2022-10-30T19:21:26.530Z,17.00
2022-10-30T19:24:06.952Z,17.00
2022-10-30T19:26:35.177Z,17.00
2022-10-30T19:29:03.255Z,16.90
2022-10-30T19:31:31.324Z,16.80
2022-10-30T19:33:59.662Z,16.80
2022-10-30T19:36:37.604Z,16.80
2022-10-30T19:39:14.437Z,16.80
2022-10-30T19:41:42.746Z,16.70
2022-10-30T19:44:11.198Z,16.40
2022-10-30T19:46:39.254Z,16.20
2022-10-30T19:49:25.246Z,16.20
2022-10-30T19:51:53.660Z,16.10
2022-10-30T19:54:21.764Z,16.10
2022-10-30T19:56:49.829Z,16.10
2022-10-30T19:59:18.026Z,16.10
2022-10-30T20:01:46.186Z,16.10
2022-10-30T20:04:14.451Z,16.10
2022-10-30T20:06:42.633Z,16.10
2022-10-30T20:09:13.497Z,16.20
2022-10-30T20:11:41.557Z,16.20
2022-10-30T20:14:09.663Z,16.20
2022-10-30T20:16:37.724Z,16.20
2022-10-30T20:19:29.354Z,16.20
2022-10-30T20:21:57.416Z,16.30
2022-10-30T20:24:25.732Z,16.20
2022-10-30T20:26:56.595Z,16.20
2022-10-30T20:29:25.396Z,16.20
2022-10-30T20:31:53.578Z,16.20
2022-10-30T20:34:21.686Z,16.30
2022-10-30T20:36:49.745Z,16.30
2022-10-30T20:39:17.851Z,16.30
2022-10-30T20:41:46.026Z,16.30
2022-10-30T20:44:14.144Z,16.30
2022-10-30T20:46:42.312Z,16.20
2022-10-30T20:49:17.229Z,16.20
2022-10-30T20:51:47.751Z,16.20
2022-10-30T20:54:15.829Z,16.10
2022-10-30T20:56:43.910Z,16.10
2022-10-30T20:59:11.989Z,16.00
2022-10-30T21:01:40.196Z,15.90
2022-10-30T21:04:08.391Z,15.90
2022-10-30T21:06:36.452Z,15.90
2022-10-30T21:09:04.673Z,16.00
2022-10-30T21:11:32.881Z,16.00
2022-10-30T21:14:00.973Z,16.00
2022-10-30T21:16:29.027Z,15.90
2022-10-30T21:18:57.123Z,15.80
2022-10-30T21:21:26.041Z,15.80
2022-10-30T21:23:55.334Z,15.70
2022-10-30T21:26:24.890Z,15.70
2022-10-30T21:28:53.092Z,15.60
2022-10-30T21:31:21.477Z,15.60
2022-10-30T21:33:49.578Z,15.50
2022-10-30T21:36:20.050Z,15.50
2022-10-30T21:38:48.602Z,15.50
2022-10-30T21:41:20.802Z,15.50
2022-10-30T21:43:55.088Z,15.40
2022-10-30T21:46:27.371Z,15.40
2022-10-30T21:48:56.293Z,15.40
2022-10-30T21:51:26.896Z,15.40
2022-10-30T21:53:56.556Z,15.40
2022-10-30T21:56:29.091Z,15.40
2022-10-30T21:59:00.436Z,15.30
2022-10-30T22:01:31.858Z,15.40
2022-10-30T22:04:02.088Z,15.30
2022-10-30T22:06:31.351Z,15.30
2022-10-30T22:09:00.298Z,15.20
2022-10-30T22:11:29.099Z,15.20
2022-10-30T22:13:59.826Z,15.10
2022-10-30T22:16:30.283Z,15.00
2022-10-30T22:18:59.323Z,15.00
2022-10-30T22:21:27.536Z,15.00
2022-10-30T22:23:55.630Z,15.00
2022-10-30T22:26:24.650Z,15.00
2022-10-30T22:28:59.829Z,15.00
2022-10-30T22:31:30.056Z,15.00
2022-10-30T22:34:01.174Z,14.90
2022-10-30T22:36:32.347Z,14.90
2022-10-30T22:39:04.290Z,14.80
2022-10-30T22:41:36.495Z,14.80
2022-10-30T22:44:08.825Z,14.80
2022-10-30T22:46:37.510Z,14.80
2022-10-30T22:49:06.312Z,14.70
2022-10-30T22:51:37.280Z,14.70
2022-10-30T22:54:12.461Z,14.70
2022-10-30T22:56:41.961Z,14.70
2022-10-30T22:59:14.609Z,14.70
2022-10-30T23:01:43.444Z,14.60
2022-10-30T23:04:14.162Z,14.60
2022-10-30T23:06:43.191Z,14.50
2022-10-30T23:09:19.412Z,14.50
2022-10-30T23:11:47.614Z,14.50
2022-10-30T23:14:15.960Z,14.50
2022-10-30T23:16:44.037Z,14.50
2022-10-30T23:19:12.122Z,14.50
2022-10-30T23:21:40.186Z,14.50
2022-10-30T23:24:08.786Z,14.40
2022-10-30T23:26:37.790Z,14.40
2022-10-30T23:29:06.011Z,14.30
2022-10-30T23:31:41.154Z,14.30
2022-10-30T23:34:16.598Z,14.30
2022-10-30T23:36:45.001Z,14.30
2022-10-30T23:39:18.146Z,14.20
2022-10-30T23:41:46.342Z,14.20
2022-10-30T23:44:16.659Z,14.20
2022-10-30T23:46:45.010Z,14.20
2022-10-30T23:49:13.110Z,14.20
2022-10-30T23:51:41.174Z,14.20
2022-10-30T23:54:09.523Z,14.10
2022-10-30T23:56:37.579Z,14.20
2022-10-30T23:59:05.681Z,14.10
